Time;durP1;ratioP1;P1;durP2;ratioP2;P2;SDS_P1;SDS_P2;PMS_P1;PMS_P2;Temp;Humidity;BMP_temperature;BMP_pressure;BME280_temperature;BME280_humidity;BME280_pressure;Samples;Min_cycle;Max_cycle;Signal;HPM_P1;HPM_P2
2022/05/09 00:00:10;;;;;;;3.50;1.58;;;17.30;99.90;;;;;;1038990;28;20138;-75
2022/05/09 00:00:40;;;;;;;2.95;1.50;;;17.30;99.90;;;;;;1042978;28;20028;-74
2022/05/09 00:01:11;;;;;;;4.90;2.40;;;17.30;99.90;;;;;;1043154;28;20068;-74
2022/05/09 00:01:41;;;;;;;5.53;2.00;;;17.30;99.90;;;;;;1043143;28;20197;-73
2022/05/09 00:02:12;;;;;;;5.33;2.00;;;17.30;99.90;;;;;;1043068;28;20024;-74
2022/05/09 00:02:43;;;;;;;3.78;1.67;;;17.30;99.90;;;;;;1043059;28;20029;-74
2022/05/09 00:03:13;;;;;;;3.53;1.53;;;17.30;99.90;;;;;;1043084;28;20116;-74
2022/05/09 00:03:45;;;;;;;4.60;1.60;;;17.30;99.90;;;;;;1042852;28;20049;-74
2022/05/09 00:04:16;;;;;;;3.88;1.95;;;17.30;99.90;;;;;;1042810;28;20111;-75
2022/05/09 00:04:46;;;;;;;4.30;2.03;;;17.30;99.90;;;;;;1042823;28;20029;-75
2022/05/09 00:05:20;;;;;;;3.60;1.37;;;17.30;99.90;;;;;;1042696;28;20088;-76
2022/05/09 00:05:50;;;;;;;4.22;1.98;;;17.30;99.90;;;;;;1043008;28;20523;-75
2022/05/09 00:06:21;;;;;;;4.60;1.83;;;17.30;99.90;;;;;;1043264;28;20477;-73
2022/05/09 00:06:52;;;;;;;3.93;1.53;;;17.30;99.90;;;;;;1043109;28;20425;-73
2022/05/09 00:07:22;;;;;;;3.63;1.63;;;17.30;99.90;;;;;;1042747;28;20060;-73
2022/05/09 00:07:53;;;;;;;6.60;1.67;;;17.30;99.90;;;;;;1042479;28;20064;-75
2022/05/09 00:08:24;;;;;;;5.40;1.85;;;17.30;99.90;;;;;;1042746;28;20084;-74
2022/05/09 00:08:55;;;;;;;3.00;1.50;;;17.30;99.90;;;;;;1042812;28;20016;-75
2022/05/09 00:09:25;;;;;;;4.90;1.80;;;17.30;99.90;;;;;;1042727;28;20016;-75
2022/05/09 00:09:56;;;;;;;4.40;1.47;;;17.30;99.90;;;;;;1038879;28;20503;-75
2022/05/09 00:10:27;;;;;;;8.30;2.17;;;17.30;99.90;;;;;;1042693;28;20352;-78
2022/05/09 00:10:58;;;;;;;6.35;1.67;;;17.30;99.90;;;;;;1043052;28;20024;-76
2022/05/09 00:11:28;;;;;;;4.43;1.67;;;17.30;99.90;;;;;;1038851;28;20020;-76
2022/05/09 00:11:59;;;;;;;2.90;1.40;;;17.30;99.90;;;;;;1042664;28;20012;-76
2022/05/09 00:12:31;;;;;;;4.35;1.55;;;17.30;99.90;;;;;;1042818;28;20047;-75
2022/05/09 00:13:02;;;;;;;4.20;1.45;;;17.30;99.90;;;;;;1038909;28;20029;-76
2022/05/09 00:13:33;;;;;;;2.57;1.30;;;17.30;99.90;;;;;;1038919;28;20013;-75
2022/05/09 00:14:04;;;;;;;4.60;1.83;;;17.30;99.90;;;;;;1039336;28;20045;-73
2022/05/09 00:14:34;;;;;;;2.40;1.70;;;17.30;99.90;;;;;;1038551;28;20017;-74
2022/05/09 00:15:06;;;;;;;5.53;1.53;;;17.30;99.90;;;;;;1038764;28;20021;-74
2022/05/09 00:15:37;;;;;;;3.38;1.50;;;17.30;99.90;;;;;;1034482;28;20073;-74
2022/05/09 00:16:07;;;;;;;5.10;2.10;;;17.30;99.90;;;;;;1034858;28;20025;-75
2022/05/09 00:16:38;;;;;;;2.97;1.43;;;17.20;99.90;;;;;;1034686;28;20025;-75
2022/05/09 00:17:10;;;;;;;5.97;1.60;;;17.20;99.90;;;;;;1038827;28;20018;-74
2022/05/09 00:17:41;;;;;;;3.85;1.45;;;17.20;99.90;;;;;;1034417;28;20022;-74
2022/05/09 00:18:11;;;;;;;3.73;1.40;;;17.20;99.90;;;;;;1031014;28;20121;-74
2022/05/09 00:18:42;;;;;;;4.23;1.73;;;17.20;99.90;;;;;;1034692;28;20553;-74
2022/05/09 00:19:17;;;;;;;4.53;1.60;;;17.20;99.90;;;;;;1034672;28;20377;-74
2022/05/09 00:19:47;;;;;;;6.05;1.83;;;17.20;99.90;;;;;;1039393;28;20021;-75
2022/05/09 00:20:18;;;;;;;4.00;1.57;;;17.20;99.90;;;;;;1038574;28;20017;-75
2022/05/09 00:20:49;;;;;;;1.93;1.30;;;17.20;99.90;;;;;;1034668;28;20021;-74
2022/05/09 00:21:19;;;;;;;5.67;2.43;;;17.20;99.90;;;;;;1030719;28;20380;-75
2022/05/09 00:21:52;;;;;;;4.00;1.50;;;17.20;99.90;;;;;;1030585;28;20118;-75
2022/05/09 00:22:24;;;;;;;5.00;1.67;;;17.20;99.90;;;;;;1037140;28;20017;-75
2022/05/09 00:22:55;;;;;;;4.85;1.40;;;17.20;99.90;;;;;;1042781;28;20024;-75
2022/05/09 00:23:26;;;;;;;5.13;1.60;;;17.20;99.90;;;;;;1042915;28;20494;-74
2022/05/09 00:23:57;;;;;;;4.60;1.63;;;17.10;99.90;;;;;;1042626;28;20096;-75
2022/05/09 00:24:27;;;;;;;4.13;2.10;;;17.10;99.90;;;;;;1043020;28;20707;-75
2022/05/09 00:25:00;;;;;;;3.40;1.43;;;17.10;99.90;;;;;;1042682;28;20021;-75
2022/05/09 00:25:31;;;;;;;4.35;1.48;;;17.10;99.90;;;;;;1042832;28;20033;-75
2022/05/09 00:26:01;;;;;;;3.80;1.77;;;17.10;99.90;;;;;;1042555;28;20021;-75
2022/05/09 00:26:32;;;;;;;4.50;1.63;;;17.10;99.90;;;;;;1042860;28;20108;-73
2022/05/09 00:27:03;;;;;;;5.53;1.80;;;17.10;99.90;;;;;;1042756;28;20013;-75
2022/05/09 00:27:33;;;;;;;7.30;1.95;;;17.10;99.90;;;;;;1042717;28;20017;-75
2022/05/09 00:28:04;;;;;;;3.27;1.47;;;17.10;99.90;;;;;;1042833;28;20168;-73
2022/05/09 00:28:35;;;;;;;5.73;2.10;;;17.10;99.90;;;;;;1042739;28;20452;-74
2022/05/09 00:29:07;;;;;;;5.07;1.63;;;17.10;99.90;;;;;;1038946;28;20511;-74
2022/05/09 00:29:37;;;;;;;3.13;1.60;;;17.10;99.90;;;;;;1042805;28;20017;-75
2022/05/09 00:30:09;;;;;;;3.23;1.37;;;17.10;99.90;;;;;;1042598;28;20357;-74
2022/05/09 00:30:39;;;;;;;5.88;2.28;;;17.10;99.90;;;;;;1042737;28;20021;-74
2022/05/09 00:31:10;;;;;;;7.03;1.90;;;17.10;99.90;;;;;;1042713;28;20144;-73
2022/05/09 00:31:45;;;;;;;3.97;1.53;;;17.10;99.90;;;;;;1042849;28;20136;-73
2022/05/09 00:32:16;;;;;;;3.45;1.60;;;17.00;99.90;;;;;;1042594;28;20021;-73
2022/05/09 00:32:47;;;;;;;5.47;1.57;;;17.00;99.90;;;;;;1042903;28;20025;-73
2022/05/09 00:33:17;;;;;;;5.30;1.87;;;17.00;99.90;;;;;;1043169;28;20071;-72
2022/05/09 00:33:48;;;;;;;2.37;1.37;;;17.00;99.90;;;;;;1043092;28;20028;-73
2022/05/09 00:34:21;;;;;;;6.30;1.50;;;17.00;99.90;;;;;;1043076;28;20503;-72
2022/05/09 00:34:52;;;;;;;4.65;1.60;;;17.00;99.90;;;;;;1043109;28;20048;-72
2022/05/09 00:35:22;;;;;;;5.00;2.20;;;17.00;99.90;;;;;;1042635;28;20028;-73
2022/05/09 00:35:53;;;;;;;3.63;1.57;;;17.00;99.90;;;;;;1042863;28;20529;-73
2022/05/09 00:36:23;;;;;;;3.37;1.80;;;17.00;99.90;;;;;;1042807;28;20045;-74
2022/05/09 00:36:55;;;;;;;4.63;1.87;;;17.00;99.90;;;;;;1042921;28;20051;-73
2022/05/09 00:37:25;;;;;;;7.35;2.40;;;17.00;99.90;;;;;;1042617;28;20091;-74
2022/05/09 00:37:56;;;;;;;2.77;1.53;;;17.00;99.90;;;;;;1042634;28;20128;-73
2022/05/09 00:38:28;;;;;;;4.23;1.70;;;17.00;99.90;;;;;;1038605;28;20572;-73
2022/05/09 00:38:59;;;;;;;6.30;2.20;;;17.00;99.90;;;;;;1039167;28;20436;-74
2022/05/09 00:39:30;;;;;;;4.72;1.83;;;17.00;99.90;;;;;;1038693;28;20025;-73
2022/05/09 00:40:01;;;;;;;3.65;1.80;;;17.00;99.90;;;;;;1039119;28;20132;-74
2022/05/09 00:40:31;;;;;;;2.17;1.40;;;17.00;99.90;;;;;;1038411;28;20075;-74
2022/05/09 00:41:51;;;;;;;4.85;1.85;;;16.90;99.90;;;;;;1038822;28;20032;-74
2022/05/09 00:42:22;;;;;;;4.23;1.43;;;16.90;99.90;;;;;;1038793;28;20026;-74
2022/05/09 00:42:54;;;;;;;3.90;1.87;;;17.00;99.90;;;;;;1038456;28;20134;-74
2022/05/09 00:43:30;;;;;;;4.00;2.10;;;16.90;99.90;;;;;;1038415;28;20096;-73
2022/05/09 00:44:12;;;;;;;5.57;1.75;;;16.90;99.90;;;;;;1038946;28;20061;-73
2022/05/09 00:44:42;;;;;;;3.13;1.58;;;16.90;99.90;;;;;;1041248;28;20487;-73
2022/05/09 00:45:13;;;;;;;3.63;1.57;;;16.90;99.90;;;;;;1038439;28;20574;-73
2022/05/09 00:45:44;;;;;;;2.73;1.77;;;16.90;99.90;;;;;;1038643;28;20067;-73
2022/05/09 00:46:14;;;;;;;4.07;1.70;;;16.90;99.90;;;;;;1038647;28;20032;-74
2022/05/09 00:46:48;;;;;;;5.23;2.00;;;16.90;99.90;;;;;;1038699;28;20018;-75
2022/05/09 00:47:20;;;;;;;2.70;1.40;;;17.00;99.90;;;;;;1038974;28;20013;-72
2022/05/09 00:47:51;;;;;;;3.83;1.95;;;17.00;99.90;;;;;;1038319;28;20663;-73
2022/05/09 00:48:21;;;;;;;3.63;1.60;;;17.00;99.90;;;;;;1038616;28;20449;-73
2022/05/09 00:48:52;;;;;;;3.13;1.47;;;16.90;99.90;;;;;;1038787;28;20909;-73
2022/05/09 00:49:49;;;;;;;3.93;1.80;;;17.00;99.90;;;;;;1038742;28;20018;-75
2022/05/09 00:50:27;;;;;;;4.75;1.90;;;17.00;99.90;;;;;;1038014;28;20018;-73
2022/05/09 00:50:59;;;;;;;7.35;2.15;;;17.00;99.90;;;;;;1039025;28;20148;-75
2022/05/09 00:51:31;;;;;;;4.63;1.52;;;17.00;99.90;;;;;;1042910;28;20017;-73
2022/05/09 00:52:11;;;;;;;5.70;2.33;;;17.00;99.90;;;;;;1042834;28;20102;-74
2022/05/09 00:52:54;;;;;;;2.67;1.55;;;17.00;99.90;;;;;;1038636;28;20018;-73
2022/05/09 00:53:26;;;;;;;4.25;1.50;;;17.00;99.90;;;;;;1038467;28;20036;-73
2022/05/09 00:54:01;;;;;;;3.15;1.60;;;16.90;99.90;;;;;;1038576;28;20430;-73
2022/05/09 00:54:41;;;;;;;4.10;1.88;;;16.90;99.90;;;;;;1038931;28;20139;-73
2022/05/09 00:55:16;;;;;;;5.78;1.80;;;16.90;99.90;;;;;;1038983;28;20119;-73
2022/05/09 00:55:53;;;;;;;4.32;1.98;;;16.90;99.90;;;;;;1038896;28;20555;-73
2022/05/09 00:56:29;;;;;;;4.75;1.65;;;16.90;99.90;;;;;;1038892;28;20101;-73
2022/05/09 00:57:09;;;;;;;3.10;1.83;;;16.90;99.90;;;;;;1039330;28;20025;-73
2022/05/09 00:57:52;;;;;;;4.32;1.67;;;16.90;99.90;;;;;;1038844;28;20093;-72
2022/05/09 00:58:32;;;;;;;4.78;1.65;;;16.90;99.90;;;;;;1039075;28;20510;-72
2022/05/09 00:59:09;;;;;;;3.03;1.70;;;16.90;99.90;;;;;;1039958;28;20025;-73
2022/05/09 00:59:40;;;;;;;5.20;1.30;;;16.90;99.90;;;;;;1039706;28;20033;-75
2022/05/09 01:00:15;;;;;;;3.45;1.70;;;16.90;99.90;;;;;;1039610;28;20127;-75
2022/05/09 01:00:46;;;;;;;3.42;1.60;;;16.80;99.90;;;;;;1039255;28;20021;-74
2022/05/09 01:01:19;;;;;;;4.43;1.90;;;16.80;99.90;;;;;;1039509;28;20017;-73
2022/05/09 01:01:49;;;;;;;4.60;1.60;;;16.80;99.90;;;;;;1039264;28;20476;-74
2022/05/09 01:02:21;;;;;;;3.17;1.50;;;16.80;99.90;;;;;;1039835;28;20487;-74
2022/05/09 01:02:59;;;;;;;6.32;1.95;;;16.80;99.90;;;;;;1034907;28;20276;-75
2022/05/09 01:03:36;;;;;;;3.08;1.65;;;16.80;99.90;;;;;;1036570;28;20135;-74
2022/05/09 01:04:15;;;;;;;3.47;1.83;;;16.80;99.90;;;;;;1039580;28;20064;-73
2022/05/09 01:04:49;;;;;;;;;;;16.80;99.90;;;;;;1043246;28;20112;-73
2022/05/09 01:05:20;;;;;;;4.25;1.80;;;16.80;99.90;;;;;;1043643;28;19951;-73
2022/05/09 01:05:50;;;;;;;5.87;1.90;;;16.80;99.90;;;;;;1043372;28;20017;-74
2022/05/09 01:06:21;;;;;;;4.23;2.13;;;16.80;99.90;;;;;;1043567;28;20021;-74
2022/05/09 01:06:53;;;;;;;4.43;1.80;;;16.80;99.90;;;;;;1043586;28;20552;-74
2022/05/09 01:07:25;;;;;;;3.58;1.58;;;16.80;99.90;;;;;;1043562;28;20013;-73
2022/05/09 01:07:56;;;;;;;5.00;2.20;;;16.80;99.90;;;;;;1043758;28;20013;-73
2022/05/09 01:08:26;;;;;;;3.45;1.50;;;16.80;99.90;;;;;;1043904;28;20361;-73
2022/05/09 01:08:57;;;;;;;4.67;1.97;;;16.70;99.90;;;;;;1043618;28;20543;-74
2022/05/09 01:09:27;;;;;;;2.80;1.40;;;16.80;99.90;;;;;;1043678;28;20107;-74
2022/05/09 01:09:58;;;;;;;3.40;1.63;;;16.70;99.90;;;;;;1043351;28;20817;-74
2022/05/09 01:10:32;;;;;;;5.85;2.17;;;16.70;99.90;;;;;;1043483;28;20017;-74
2022/05/09 01:11:09;;;;;;;5.53;1.80;;;16.70;99.90;;;;;;1043469;28;20087;-73
2022/05/09 01:11:43;;;;;;;3.78;2.03;;;16.70;99.90;;;;;;1043677;28;20009;-73
2022/05/09 01:12:17;;;;;;;4.03;1.60;;;16.70;99.90;;;;;;1043830;28;20040;-74
2022/05/09 01:12:48;;;;;;;5.45;1.90;;;16.70;99.90;;;;;;1044122;28;20024;-73
2022/05/09 01:13:22;;;;;;;3.33;2.30;;;16.70;99.90;;;;;;1043740;28;20009;-74
2022/05/09 01:13:57;;;;;;;5.40;2.22;;;16.70;99.90;;;;;;1043482;28;20107;-74
2022/05/09 01:14:32;;;;;;;6.45;1.70;;;16.70;99.90;;;;;;1043174;28;20084;-73
2022/05/09 01:15:07;;;;;;;5.70;1.73;;;16.60;99.90;;;;;;1043692;28;20380;-73
2022/05/09 01:15:40;;;;;;;3.35;1.50;;;16.60;99.90;;;;;;1043625;28;20127;-75
2022/05/09 01:16:11;;;;;;;4.25;1.73;;;16.60;99.90;;;;;;1043566;28;20091;-73
2022/05/09 01:16:43;;;;;;;4.97;2.28;;;16.60;99.90;;;;;;1043422;28;20016;-74
2022/05/09 01:17:13;;;;;;;4.40;2.13;;;16.60;99.90;;;;;;1043651;28;20579;-74
2022/05/09 01:17:46;;;;;;;3.20;1.70;;;16.60;99.90;;;;;;1043532;28;20542;-73
2022/05/09 01:18:17;;;;;;;4.88;2.08;;;16.60;99.90;;;;;;1043960;28;20360;-74
2022/05/09 01:18:48;;;;;;;6.23;2.33;;;16.60;99.90;;;;;;1043357;28;20055;-74
2022/05/09 01:19:37;;;;;;;4.85;2.08;;;16.60;99.90;;;;;;1043621;28;20446;-73
2022/05/09 01:20:10;;;;;;;3.75;1.60;;;16.60;99.90;;;;;;1043748;28;20095;-73
2022/05/09 01:20:41;;;;;;;4.28;1.92;;;16.60;99.90;;;;;;1043729;28;20039;-73
2022/05/09 01:21:47;;;;;;;6.43;2.10;;;16.60;99.90;;;;;;1043776;28;20154;-73
2022/05/09 01:22:29;;;;;;;4.93;2.15;;;16.60;99.90;;;;;;1044063;28;20021;-75
2022/05/09 01:22:59;;;;;;;5.03;2.08;;;16.60;99.90;;;;;;1043917;28;20035;-76
2022/05/09 01:23:34;;;;;;;5.13;1.70;;;16.60;99.90;;;;;;1043429;28;20080;-75
2022/05/09 01:24:12;;;;;;;5.38;2.13;;;16.60;99.90;;;;;;1039275;28;20067;-74
2022/05/09 01:24:43;;;;;;;4.72;1.88;;;16.60;99.90;;;;;;1039431;28;20029;-74
2022/05/09 01:25:16;;;;;;;3.88;1.67;;;16.60;99.90;;;;;;1041359;28;20045;-74
2022/05/09 01:25:48;;;;;;;2.88;1.80;;;16.60;99.90;;;;;;1043675;28;20021;-74
2022/05/09 01:26:19;;;;;;;3.28;1.85;;;16.60;99.90;;;;;;1043836;28;20444;-73
2022/05/09 01:26:50;;;;;;;3.57;2.07;;;16.60;99.90;;;;;;1043416;28;20069;-73
2022/05/09 01:27:21;;;;;;;4.22;1.60;;;16.60;99.90;;;;;;1043639;28;20488;-73
2022/05/09 01:27:52;;;;;;;3.42;1.65;;;16.60;99.90;;;;;;1043521;28;20545;-73
2022/05/09 01:28:22;;;;;;;5.07;1.83;;;16.60;99.90;;;;;;1043612;28;20456;-74
2022/05/09 01:29:00;;;;;;;2.47;1.40;;;16.60;99.90;;;;;;1043439;28;20017;-74
2022/05/09 01:29:55;;;;;;;5.68;2.28;;;16.70;99.90;;;;;;1040520;28;20471;-74
2022/05/09 01:30:57;;;;;;;3.17;1.70;;;16.60;99.90;;;;;;1043663;28;20021;-73
2022/05/09 01:31:27;;;;;;;3.92;1.90;;;16.70;99.90;;;;;;1043714;28;20025;-73
2022/05/09 01:31:58;;;;;;;5.80;2.00;;;16.60;99.90;;;;;;1044001;28;20096;-73
2022/05/09 01:32:40;;;;;;;3.50;1.63;;;16.60;99.90;;;;;;1043834;28;20679;-73
2022/05/09 01:33:20;;;;;;;4.93;1.95;;;16.60;99.90;;;;;;1043687;28;20139;-74
2022/05/09 01:33:52;;;;;;;4.55;2.03;;;16.60;99.90;;;;;;1043951;28;20025;-73
2022/05/09 01:34:26;;;;;;;8.93;2.03;;;16.60;99.90;;;;;;1043765;28;20066;-73
2022/05/09 01:35:06;;;;;;;5.50;1.73;;;16.60;99.90;;;;;;1043942;28;20028;-73
2022/05/09 01:35:45;;;;;;;7.50;1.80;;;16.60;99.90;;;;;;1043806;28;20020;-74
2022/05/09 01:36:19;;;;;;;3.88;1.67;;;16.60;99.90;;;;;;1043553;28;20140;-74
2022/05/09 01:37:00;;;;;;;3.78;1.52;;;16.60;99.90;;;;;;1043469;28;20618;-74
2022/05/09 01:37:32;;;;;;;4.03;1.83;;;16.60;99.90;;;;;;1035008;28;20026;-74
2022/05/09 01:38:23;;;;;;;3.22;1.40;;;16.60;99.90;;;;;;1037833;28;20144;-74
2022/05/09 01:39:00;;;;;;;4.10;1.70;;;16.50;99.90;;;;;;1035566;28;20048;-74
2022/05/09 01:39:32;;;;;;;3.70;1.70;;;16.50;99.90;;;;;;1038815;28;20087;-74
2022/05/09 01:40:03;;;;;;;4.90;2.25;;;16.50;99.90;;;;;;1039577;28;20013;-73
2022/05/09 01:40:33;;;;;;;4.90;1.67;;;16.50;99.90;;;;;;1039254;28;20018;-74
2022/05/09 01:41:04;;;;;;;3.13;1.70;;;16.50;99.90;;;;;;1039647;28;20017;-73
2022/05/09 01:41:43;;;;;;;3.90;1.47;;;16.50;99.90;;;;;;1039596;28;20349;-75
2022/05/09 01:42:14;;;;;;;4.88;1.63;;;16.50;99.90;;;;;;1039591;28;20063;-75
2022/05/09 01:42:44;;;;;;;4.80;1.90;;;16.50;99.90;;;;;;1039099;28;20162;-75
2022/05/09 01:43:51;;;;;;;5.80;1.90;;;16.50;99.90;;;;;;1038923;28;20022;-75
2022/05/09 01:44:23;;;;;;;3.08;1.55;;;16.50;99.90;;;;;;1039477;28;20402;-74
2022/05/09 01:44:53;;;;;;;3.42;1.80;;;16.50;99.90;;;;;;1039395;28;20014;-74
2022/05/09 01:45:24;;;;;;;4.40;1.97;;;16.50;99.90;;;;;;1039388;28;20072;-75
2022/05/09 01:45:54;;;;;;;5.23;1.90;;;16.40;99.90;;;;;;1039183;28;20647;-75
2022/05/09 01:46:29;;;;;;;4.10;2.17;;;16.40;99.90;;;;;;1039945;28;20636;-74
2022/05/09 01:49:31;;;;;;;5.10;2.00;;;16.40;99.90;;;;;;1043864;28;20055;-73
2022/05/09 01:50:02;;;;;;;5.40;2.03;;;16.40;99.90;;;;;;1042737;28;20019;-73
2022/05/09 01:50:32;;;;;;;4.88;2.10;;;16.40;99.90;;;;;;1039208;28;20112;-73
2022/05/09 01:51:03;;;;;;;3.77;1.97;;;16.40;99.90;;;;;;1035111;28;20025;-74
2022/05/09 01:51:36;;;;;;;3.03;1.63;;;16.40;99.90;;;;;;1035433;28;20468;-74
2022/05/09 01:52:08;;;;;;;3.72;1.67;;;16.40;99.90;;;;;;1039154;28;20132;-74
2022/05/09 01:52:39;;;;;;;3.03;1.70;;;16.30;99.90;;;;;;1039335;28;20044;-73
2022/05/09 01:53:10;;;;;;;5.73;1.77;;;16.30;99.90;;;;;;1035671;28;20108;-73
2022/05/09 01:53:45;;;;;;;4.28;1.90;;;16.30;99.90;;;;;;1039364;28;20811;-74
2022/05/09 01:54:16;;;;;;;6.20;2.25;;;16.30;99.90;;;;;;1039089;28;20009;-74
2022/05/09 01:54:47;;;;;;;5.82;2.25;;;16.30;99.90;;;;;;1039384;28;20021;-72
2022/05/09 01:55:18;;;;;;;4.20;1.88;;;16.30;99.90;;;;;;1039260;28;20017;-73
2022/05/09 01:55:48;;;;;;;4.87;1.80;;;16.30;99.90;;;;;;1039269;28;20009;-73
2022/05/09 01:56:21;;;;;;;3.53;1.87;;;16.30;99.90;;;;;;1039273;28;20087;-74
2022/05/09 01:56:52;;;;;;;3.47;1.85;;;16.30;99.90;;;;;;1039476;28;20021;-73
2022/05/09 01:57:22;;;;;;;7.03;2.17;;;16.30;99.90;;;;;;1039110;28;20112;-74
2022/05/09 01:57:53;;;;;;;4.00;1.87;;;16.30;99.90;;;;;;1039505;28;20018;-74
2022/05/09 01:58:23;;;;;;;5.77;2.00;;;16.30;99.90;;;;;;1039259;28;20045;-73
2022/05/09 01:58:55;;;;;;;4.97;1.70;;;16.30;99.90;;;;;;1039250;28;20016;-73
2022/05/09 01:59:26;;;;;;;4.65;1.85;;;16.20;99.90;;;;;;1039358;28;20037;-74
2022/05/09 01:59:58;;;;;;;4.13;1.83;;;16.20;99.90;;;;;;1039113;28;20021;-73
2022/05/09 02:00:28;;;;;;;5.40;2.10;;;16.20;99.90;;;;;;1039239;28;20459;-74
2022/05/09 02:00:59;;;;;;;3.87;1.70;;;16.20;99.90;;;;;;1042720;28;20419;-73
2022/05/09 02:01:35;;;;;;;5.40;2.33;;;16.20;99.90;;;;;;1043130;28;20317;-73
2022/05/09 02:02:10;;;;;;;5.28;1.90;;;16.20;99.90;;;;;;1043757;28;20077;-74
2022/05/09 02:02:40;;;;;;;4.30;1.67;;;16.20;99.90;;;;;;1043013;28;20040;-72
2022/05/09 02:03:11;;;;;;;4.13;1.93;;;16.30;99.90;;;;;;1043477;28;20009;-73
2022/05/09 02:03:41;;;;;;;4.90;2.30;;;16.30;99.90;;;;;;1043312;28;20092;-73
2022/05/09 02:04:12;;;;;;;5.07;2.10;;;16.30;99.90;;;;;;1043616;28;20020;-72
2022/05/09 02:04:43;;;;;;;2.80;1.70;;;16.30;99.90;;;;;;1043731;28;20017;-74
2022/05/09 02:05:13;;;;;;;4.87;1.93;;;16.30;99.90;;;;;;1043869;28;20071;-72
2022/05/09 02:05:44;;;;;;;4.67;1.73;;;16.30;99.90;;;;;;1043616;28;20009;-73
2022/05/09 02:06:15;;;;;;;4.23;2.20;;;16.30;99.90;;;;;;1043642;28;20012;-72
2022/05/09 02:06:45;;;;;;;7.60;2.95;;;16.30;99.90;;;;;;1043565;28;20013;-73
2022/05/09 02:07:19;;;;;;;3.67;1.53;;;16.30;99.90;;;;;;1043386;28;20044;-73
2022/05/09 02:07:49;;;;;;;3.75;2.08;;;16.30;99.90;;;;;;1043238;28;20021;-75
2022/05/09 02:08:20;;;;;;;7.40;2.07;;;16.30;99.90;;;;;;1043457;28;20033;-73
2022/05/09 02:08:50;;;;;;;5.13;1.70;;;16.30;99.90;;;;;;1043101;28;20044;-73
2022/05/09 02:09:21;;;;;;;3.83;1.97;;;16.30;99.90;;;;;;1043083;28;20009;-73
2022/05/09 02:09:52;;;;;;;4.80;1.90;;;16.30;99.90;;;;;;1043587;28;20508;-73
2022/05/09 02:10:23;;;;;;;4.10;1.90;;;16.30;99.90;;;;;;1043718;28;20331;-73
2022/05/09 02:10:53;;;;;;;3.93;1.80;;;16.30;99.90;;;;;;1043425;28;20328;-72
2022/05/09 02:11:24;;;;;;;3.03;1.63;;;16.30;99.90;;;;;;1043160;28;20112;-73
2022/05/09 02:11:55;;;;;;;4.27;1.90;;;16.30;99.90;;;;;;1043278;28;20436;-73
2022/05/09 02:12:26;;;;;;;4.87;2.20;;;16.30;99.90;;;;;;1043158;28;20206;-74
2022/05/09 02:12:57;;;;;;;6.22;1.80;;;16.30;99.90;;;;;;1043163;28;20032;-73
2022/05/09 02:13:27;;;;;;;4.27;1.70;;;16.30;99.90;;;;;;1043388;28;20021;-74
2022/05/09 02:13:58;;;;;;;3.97;1.87;;;16.30;99.90;;;;;;1039109;28;20017;-74
2022/05/09 02:14:28;;;;;;;4.40;2.00;;;16.30;99.90;;;;;;1043054;28;20028;-73
2022/05/09 02:14:59;;;;;;;4.43;1.90;;;16.30;99.90;;;;;;1039061;28;20018;-74
2022/05/09 02:15:31;;;;;;;7.53;2.23;;;16.30;99.90;;;;;;1034957;28;20108;-73
2022/05/09 02:16:03;;;;;;;4.72;1.80;;;16.30;99.90;;;;;;1034997;28;20018;-73
2022/05/09 02:16:34;;;;;;;3.33;1.73;;;16.20;99.90;;;;;;1034753;28;20342;-73
2022/05/09 02:17:08;;;;;;;5.33;2.07;;;16.20;99.90;;;;;;1035864;28;20701;-73
2022/05/09 02:17:40;;;;;;;4.10;1.80;;;16.20;99.90;;;;;;1039295;28;20412;-74
2022/05/09 02:18:11;;;;;;;4.88;1.98;;;16.20;99.90;;;;;;1039361;28;20036;-73
2022/05/09 02:18:41;;;;;;;3.37;1.77;;;16.20;99.90;;;;;;1039602;28;20099;-73
2022/05/09 02:19:12;;;;;;;3.43;1.83;;;16.20;99.90;;;;;;1039595;28;20018;-73
2022/05/09 02:19:43;;;;;;;4.47;2.13;;;16.20;99.90;;;;;;1039442;28;20053;-73
2022/05/09 02:20:14;;;;;;;5.30;1.92;;;16.20;99.90;;;;;;1039006;28;20017;-73
2022/05/09 02:20:46;;;;;;;2.43;1.60;;;16.20;99.90;;;;;;1038962;28;20075;-73
2022/05/09 02:21:17;;;;;;;6.28;2.65;;;16.20;99.90;;;;;;1039064;28;20032;-73
2022/05/09 02:21:47;;;;;;;4.93;1.90;;;16.20;99.90;;;;;;1039767;28;20060;-73
2022/05/09 02:22:18;;;;;;;3.40;2.07;;;16.10;99.90;;;;;;1042800;28;20017;-73
2022/05/09 02:22:49;;;;;;;3.83;1.93;;;16.10;99.90;;;;;;1035090;28;20076;-72
2022/05/09 02:23:20;;;;;;;3.17;1.50;;;16.10;99.90;;;;;;1035035;28;20014;-75
2022/05/09 02:23:50;;;;;;;3.87;1.63;;;16.10;99.90;;;;;;1035001;28;20022;-73
2022/05/09 02:24:22;;;;;;;4.97;2.10;;;16.10;99.90;;;;;;1035306;28;20048;-75
2022/05/09 02:24:53;;;;;;;6.15;2.00;;;16.10;99.90;;;;;;1039060;28;20067;-72
2022/05/09 02:25:29;;;;;;;3.93;2.40;;;16.10;99.90;;;;;;1039316;28;20019;-73
2022/05/09 02:26:00;;;;;;;6.22;2.20;;;16.10;99.90;;;;;;1039120;28;20507;-72
2022/05/09 02:26:31;;;;;;;2.95;1.90;;;16.10;99.90;;;;;;1039023;28;20096;-73
2022/05/09 02:27:03;;;;;;;4.80;1.92;;;16.10;99.90;;;;;;1039379;28;20494;-74
2022/05/09 02:27:33;;;;;;;6.65;2.63;;;16.10;99.90;;;;;;1038832;28;20338;-73
2022/05/09 02:28:07;;;;;;;4.30;2.00;;;16.10;99.90;;;;;;1039217;28;20582;-73
2022/05/09 02:28:38;;;;;;;2.97;1.83;;;16.10;99.90;;;;;;1038910;28;20020;-73
2022/05/09 02:29:09;;;;;;;4.70;2.03;;;16.10;99.90;;;;;;1039198;28;20014;-73
2022/05/09 02:29:42;;;;;;;6.37;2.27;;;16.10;99.90;;;;;;1039219;28;20256;-74
2022/05/09 02:30:12;;;;;;;5.10;1.90;;;16.10;99.90;;;;;;1039116;28;20010;-74
2022/05/09 02:30:43;;;;;;;4.60;1.90;;;16.10;99.90;;;;;;1039565;28;20048;-74
2022/05/09 02:31:13;;;;;;;3.70;1.60;;;16.00;99.90;;;;;;1039475;28;20025;-73
2022/05/09 02:31:45;;;;;;;5.80;2.50;;;16.00;99.90;;;;;;1039480;28;20024;-73
2022/05/09 02:32:16;;;;;;;4.57;1.70;;;16.00;99.90;;;;;;1043085;28;20021;-74
2022/05/09 02:32:47;;;;;;;3.45;1.85;;;16.00;99.90;;;;;;1043452;28;20017;-76
2022/05/09 02:33:18;;;;;;;4.17;2.20;;;16.00;99.90;;;;;;1041904;28;20025;-73
2022/05/09 02:33:48;;;;;;;6.17;1.73;;;16.00;99.90;;;;;;1039313;28;20469;-73
2022/05/09 02:34:19;;;;;;;5.63;2.37;;;16.00;99.90;;;;;;1039099;28;20493;-74
2022/05/09 02:34:50;;;;;;;2.40;1.77;;;16.00;99.90;;;;;;1039557;28;20552;-74
2022/05/09 02:35:21;;;;;;;3.80;2.10;;;16.00;99.90;;;;;;1041902;28;20044;-74
2022/05/09 02:35:52;;;;;;;4.47;2.25;;;16.00;99.90;;;;;;1043544;28;20096;-74
2022/05/09 02:36:23;;;;;;;4.13;2.43;;;16.00;99.90;;;;;;1043362;28;20009;-73
2022/05/09 02:36:53;;;;;;;5.43;1.90;;;16.00;99.90;;;;;;1043633;28;20106;-74
2022/05/09 02:37:24;;;;;;;3.63;1.90;;;16.00;99.90;;;;;;1043442;28;20074;-74
2022/05/09 02:37:54;;;;;;;4.73;2.07;;;16.00;99.90;;;;;;1043590;28;20534;-74
2022/05/09 02:38:28;;;;;;;4.00;1.60;;;16.00;99.90;;;;;;1043086;28;20496;-74
2022/05/09 02:38:59;;;;;;;4.57;1.88;;;16.00;99.90;;;;;;1043242;28;20043;-73
2022/05/09 02:39:30;;;;;;;4.60;2.10;;;16.00;99.90;;;;;;1043107;28;20020;-73
2022/05/09 02:40:00;;;;;;;3.17;2.03;;;16.00;99.90;;;;;;1043330;28;20041;-73
2022/05/09 02:40:33;;;;;;;7.60;2.10;;;16.00;99.90;;;;;;1038794;28;20010;-75
2022/05/09 02:41:04;;;;;;;4.18;1.90;;;16.00;99.90;;;;;;1039649;28;20009;-73
2022/05/09 02:41:34;;;;;;;3.70;1.67;;;16.00;99.90;;;;;;1042941;28;20120;-73
2022/05/09 02:42:05;;;;;;;6.63;2.03;;;16.00;99.90;;;;;;1039493;28;20065;-74
2022/05/09 02:42:36;;;;;;;4.97;1.73;;;16.00;99.90;;;;;;1042855;28;20025;-73
2022/05/09 02:43:06;;;;;;;3.03;1.50;;;16.00;99.90;;;;;;1035947;28;20631;-74
2022/05/09 02:43:37;;;;;;;5.83;2.53;;;16.00;99.90;;;;;;1034794;28;20077;-73
2022/05/09 02:44:08;;;;;;;6.63;2.10;;;16.00;99.90;;;;;;1035239;28;20010;-72
2022/05/09 02:44:38;;;;;;;4.10;1.93;;;16.00;99.90;;;;;;1038958;28;20013;-73
2022/05/09 02:45:10;;;;;;;6.93;2.43;;;16.00;99.90;;;;;;1039510;28;20013;-73
2022/05/09 02:45:40;;;;;;;4.43;1.58;;;16.00;99.90;;;;;;1039237;28;20009;-77
2022/05/09 02:46:11;;;;;;;4.93;2.27;;;16.00;99.90;;;;;;1039691;28;20057;-73
2022/05/09 02:46:45;;;;;;;2.97;1.80;;;16.00;99.90;;;;;;1039010;28;20025;-74
2022/05/09 02:47:15;;;;;;;5.70;2.50;;;16.00;99.90;;;;;;1039059;28;20092;-74
2022/05/09 02:47:47;;;;;;;3.67;2.20;;;16.00;99.90;;;;;;1034918;28;20018;-73
2022/05/09 02:48:17;;;;;;;6.93;2.17;;;16.00;99.90;;;;;;1035532;28;20026;-76
2022/05/09 02:48:48;;;;;;;3.13;1.50;;;16.00;99.90;;;;;;1039231;28;20025;-75
2022/05/09 02:49:19;;;;;;;7.17;2.27;;;16.00;99.90;;;;;;1039013;28;20025;-74
2022/05/09 02:49:50;;;;;;;3.95;1.67;;;16.00;99.90;;;;;;1041593;28;20044;-74
2022/05/09 02:50:22;;;;;;;4.63;2.17;;;16.00;99.90;;;;;;1041798;28;20017;-74
2022/05/09 02:50:53;;;;;;;4.05;2.10;;;16.00;99.90;;;;;;1039370;28;20095;-76
2022/05/09 02:51:23;;;;;;;4.10;1.83;;;16.00;99.90;;;;;;1039031;28;20025;-74
2022/05/09 02:51:54;;;;;;;5.20;1.93;;;16.00;99.90;;;;;;1034931;28;20041;-74
2022/05/09 02:52:24;;;;;;;4.30;2.10;;;16.00;99.90;;;;;;1034889;28;20057;-75
2022/05/09 02:52:55;;;;;;;5.23;2.10;;;16.00;99.90;;;;;;1035081;28;20532;-74